Time;durP1;ratioP1;P1;durP2;ratioP2;P2;SDS_P1;SDS_P2;PMS_P1;PMS_P2;Temp;Humidity;BMP_temperature;BMP_pressure;BME280_temperature;BME280_humidity;BME280_pressure;Samples;Min_cycle;Max_cycle;Signal;HPM_P1;HPM_P2
2022/11/20 00:01:30;;;;;;;14.00;7.77;;;0.70;99.90;;;;;;5036236;28;20268;-54
2022/11/20 00:03:57;;;;;;;13.57;7.43;;;0.80;99.90;;;;;;5039475;28;20279;-54
2022/11/20 00:06:26;;;;;;;11.60;7.80;;;0.90;99.90;;;;;;5039347;28;20208;-58
2022/11/20 00:08:58;;;;;;;12.70;7.43;;;0.70;99.90;;;;;;5038664;28;20351;-55
2022/11/20 00:11:27;;;;;;;12.30;7.77;;;0.70;99.90;;;;;;5036387;28;20307;-55
2022/11/20 00:13:57;;;;;;;13.30;7.90;;;0.60;99.90;;;;;;5038029;28;20406;-58
2022/11/20 00:16:25;;;;;;;11.03;7.13;;;0.60;99.90;;;;;;5038936;28;20273;-55
2022/11/20 00:18:53;;;;;;;12.37;7.63;;;0.60;99.90;;;;;;5036131;28;20310;-55
2022/11/20 00:21:25;;;;;;;11.97;7.53;;;0.70;99.90;;;;;;5040973;28;20588;-55
2022/11/20 00:23:54;;;;;;;13.63;8.80;;;0.60;99.90;;;;;;5042451;28;20212;-55
2022/11/20 00:26:22;;;;;;;10.93;7.53;;;0.50;99.90;;;;;;5041158;28;20250;-55
2022/11/20 00:28:51;;;;;;;13.10;7.67;;;0.60;99.90;;;;;;5022376;28;20691;-55
2022/11/20 00:31:18;;;;;;;12.83;7.90;;;0.50;99.90;;;;;;5042133;28;20200;-55
2022/11/20 00:33:45;;;;;;;12.37;7.83;;;0.40;99.90;;;;;;5040120;28;20197;-56
2022/11/20 00:36:17;;;;;;;12.50;7.77;;;0.40;99.90;;;;;;5040573;28;20227;-56
2022/11/20 00:38:44;;;;;;;12.97;8.10;;;0.50;99.90;;;;;;5031510;28;20631;-56
2022/11/20 00:41:14;;;;;;;12.63;7.80;;;0.50;99.90;;;;;;5040899;28;20205;-56
2022/11/20 00:43:41;;;;;;;14.03;6.90;;;0.50;99.90;;;;;;5020794;28;20213;-56
2022/11/20 00:46:15;;;;;;;11.20;7.37;;;0.40;99.90;;;;;;5040314;28;20218;-55
2022/11/20 00:48:43;;;;;;;10.97;7.07;;;0.50;99.90;;;;;;5038048;28;20281;-54
2022/11/20 00:51:12;;;;;;;12.90;7.73;;;0.40;99.90;;;;;;5037332;28;20759;-61
2022/11/20 00:53:39;;;;;;;16.00;7.80;;;0.50;99.90;;;;;;5033918;28;20207;-54
2022/11/20 00:56:09;;;;;;;10.77;7.27;;;0.50;99.90;;;;;;5036148;28;20212;-54
2022/11/20 00:58:38;;;;;;;12.70;7.60;;;0.60;99.90;;;;;;5034190;28;20212;-55
2022/11/20 01:01:11;;;;;;;13.20;6.90;;;0.40;99.90;;;;;;5031921;28;20295;-57
2022/11/20 01:03:43;;;;;;;11.07;7.20;;;0.20;99.90;;;;;;5033383;28;20208;-55
2022/11/20 01:06:16;;;;;;;11.90;6.73;;;0.50;99.90;;;;;;5036160;28;20632;-57
2022/11/20 01:08:43;;;;;;;11.67;7.43;;;0.60;99.90;;;;;;5034590;28;20211;-55
2022/11/20 01:11:14;;;;;;;10.17;7.20;;;0.50;99.90;;;;;;5040723;28;20665;-56
2022/11/20 01:13:42;;;;;;;11.10;7.37;;;0.50;99.90;;;;;;5039537;28;20236;-56
2022/11/20 01:16:12;;;;;;;13.63;7.73;;;0.60;99.90;;;;;;5035984;28;20204;-55
2022/11/20 01:18:40;;;;;;;10.53;6.70;;;0.60;99.90;;;;;;5038476;28;20219;-56
2022/11/20 01:21:10;;;;;;;12.70;7.83;;;0.60;99.90;;;;;;5023461;28;20211;-55
2022/11/20 01:23:39;;;;;;;11.87;7.30;;;0.60;99.90;;;;;;5038431;28;20277;-56
2022/11/20 01:26:08;;;;;;;10.43;7.23;;;0.60;99.90;;;;;;5039470;28;20645;-56
2022/11/20 01:28:35;;;;;;;15.50;8.30;;;0.60;99.90;;;;;;5037574;28;20227;-56
2022/11/20 01:31:21;;;;;;;14.20;7.47;;;0.50;99.90;;;;;;5039466;28;20639;-62
2022/11/20 01:33:51;;;;;;;14.03;8.37;;;0.50;99.90;;;;;;5035005;28;20200;-56
2022/11/20 01:36:19;;;;;;;12.17;7.03;;;0.50;99.90;;;;;;5038331;28;20214;-56
2022/11/20 01:38:46;;;;;;;12.97;7.73;;;0.50;99.90;;;;;;5039286;28;20674;-56
2022/11/20 01:43:20;;;;;;;11.60;7.13;;;0.30;99.90;;;;;;5038624;28;20204;-55
2022/11/20 01:44:03;;;;;;;13.00;7.27;;;0.40;99.90;;;;;;5038763;28;20659;-55
2022/11/20 01:46:38;;;;;;;12.53;7.87;;;0.50;99.90;;;;;;5037572;28;20208;-56
2022/11/20 01:49:16;;;;;;;13.23;7.73;;;0.50;99.90;;;;;;5039766;28;20327;-56
2022/11/20 01:51:48;;;;;;;10.67;7.07;;;0.50;99.90;;;;;;5040638;28;20502;-56
2022/11/20 01:54:19;;;;;;;11.67;7.20;;;0.40;99.90;;;;;;5040402;28;20203;-56
2022/11/20 01:56:49;;;;;;;11.37;6.90;;;0.50;99.90;;;;;;5041780;28;20251;-56
2022/11/20 01:59:19;;;;;;;11.20;6.83;;;0.50;99.90;;;;;;5038655;28;20360;-58
2022/11/20 02:01:46;;;;;;;11.37;7.03;;;0.60;99.90;;;;;;5038545;28;20233;-56
2022/11/20 02:04:14;;;;;;;13.23;7.57;;;0.60;99.90;;;;;;5038811;28;20208;-56
2022/11/20 02:06:49;;;;;;;12.13;7.43;;;0.50;99.90;;;;;;5040497;28;20347;-56
2022/11/20 02:09:16;;;;;;;12.87;7.70;;;0.50;99.90;;;;;;5037864;28;20191;-55
2022/11/20 02:11:43;;;;;;;12.33;7.60;;;0.40;99.90;;;;;;5022824;28;20234;-56
2022/11/20 02:14:10;;;;;;;11.63;7.93;;;0.40;99.90;;;;;;5037629;28;20215;-56
2022/11/20 02:16:43;;;;;;;13.07;8.03;;;0.40;99.90;;;;;;5034900;28;20208;-56
2022/11/20 02:19:27;;;;;;;13.13;8.33;;;0.40;99.90;;;;;;5035743;28;20580;-56
2022/11/20 02:22:10;;;;;;;13.67;7.73;;;0.30;99.90;;;;;;5039646;28;20591;-56
2022/11/20 02:24:37;;;;;;;13.13;8.37;;;0.40;99.90;;;;;;5038921;28;20293;-56
2022/11/20 02:27:11;;;;;;;11.10;6.77;;;0.40;99.90;;;;;;5038869;28;20653;-56
2022/11/20 02:29:55;;;;;;;13.23;7.77;;;0.40;99.90;;;;;;5034404;28;20211;-55
2022/11/20 02:32:23;;;;;;;16.57;7.60;;;0.20;99.90;;;;;;5019220;28;20285;-55
2022/11/20 02:34:51;;;;;;;11.13;7.77;;;0.40;99.90;;;;;;5036554;28;20198;-56
2022/11/20 02:37:19;;;;;;;13.50;7.20;;;0.40;99.90;;;;;;5037406;28;20558;-55
2022/11/20 02:39:48;;;;;;;12.40;8.00;;;0.40;99.90;;;;;;5039240;28;20285;-55
2022/11/20 02:42:15;;;;;;;13.60;7.83;;;0.40;99.90;;;;;;5039061;28;20213;-55
2022/11/20 02:44:42;;;;;;;12.70;7.70;;;0.30;99.90;;;;;;5033566;28;20647;-56
2022/11/20 02:47:09;;;;;;;12.23;7.77;;;0.30;99.90;;;;;;5037824;28;20213;-56
2022/11/20 02:49:36;;;;;;;12.87;7.47;;;0.40;99.90;;;;;;5038046;28;20295;-56
2022/11/20 02:52:02;;;;;;;13.77;8.97;;;0.50;99.90;;;;;;5038936;28;20222;-56
2022/11/20 02:54:29;;;;;;;13.30;8.03;;;0.40;99.90;;;;;;5039755;28;20710;-60
2022/11/20 02:56:56;;;;;;;11.87;8.13;;;0.40;99.90;;;;;;5040064;28;20207;-55
2022/11/20 02:59:23;;;;;;;15.03;8.47;;;0.40;99.90;;;;;;5038234;28;20641;-55
2022/11/20 03:01:50;;;;;;;13.67;8.60;;;0.40;99.90;;;;;;5037282;28;20242;-62
2022/11/20 03:04:16;;;;;;;14.17;8.43;;;0.40;99.90;;;;;;5039649;28;20310;-56
2022/11/20 03:06:43;;;;;;;12.43;7.97;;;0.40;99.90;;;;;;5036828;28;20219;-56
2022/11/20 03:09:10;;;;;;;12.30;7.90;;;0.30;99.90;;;;;;5020561;28;20200;-59
2022/11/20 03:11:36;;;;;;;14.70;7.73;;;0.30;99.90;;;;;;5037408;28;20323;-56
2022/11/20 03:14:05;;;;;;;12.07;8.20;;;0.30;99.90;;;;;;5038078;28;20200;-56
2022/11/20 03:16:32;;;;;;;12.60;8.57;;;0.30;99.90;;;;;;5035912;28;20211;-55
2022/11/20 03:18:59;;;;;;;12.03;7.60;;;0.30;99.90;;;;;;5039561;28;20235;-55
2022/11/20 03:21:29;;;;;;;15.30;8.73;;;0.30;99.90;;;;;;5038093;28;20215;-56
2022/11/20 03:23:56;;;;;;;13.33;7.80;;;0.40;99.90;;;;;;5038116;28;20255;-56
2022/11/20 03:26:25;;;;;;;15.00;8.40;;;0.30;99.90;;;;;;5040428;28;20216;-56
2022/11/20 03:28:57;;;;;;;13.67;7.87;;;0.30;99.90;;;;;;5037700;28;20197;-56
2022/11/20 03:31:27;;;;;;;12.70;8.33;;;0.10;99.90;;;;;;5037053;28;20548;-56
2022/11/20 03:33:53;;;;;;;11.37;7.80;;;0.20;99.90;;;;;;5039628;28;20211;-55
2022/11/20 03:36:21;;;;;;;12.63;7.73;;;0.30;99.90;;;;;;5038179;28;20236;-56
2022/11/20 03:38:48;;;;;;;12.57;8.37;;;0.20;99.90;;;;;;5037886;28;20205;-56
2022/11/20 03:41:31;;;;;;;11.90;7.80;;;0.30;99.90;;;;;;5038374;28;20266;-56
2022/11/20 03:44:00;;;;;;;12.90;8.20;;;0.20;99.90;;;;;;5037694;28;20212;-56
2022/11/20 03:46:28;;;;;;;13.80;7.43;;;0.20;99.90;;;;;;5026946;28;20610;-55
2022/11/20 03:48:56;;;;;;;11.80;7.83;;;0.20;99.90;;;;;;5036371;28;20228;-56
2022/11/20 03:51:24;;;;;;;13.63;8.50;;;0.10;99.90;;;;;;5035555;28;20266;-55
2022/11/20 03:53:53;;;;;;;13.13;8.20;;;0.10;99.90;;;;;;5034699;28;20924;-53
2022/11/20 03:56:24;;;;;;;14.00;8.50;;;0.10;99.90;;;;;;5034086;28;20216;-56
2022/11/20 03:58:51;;;;;;;13.70;8.77;;;0.10;99.90;;;;;;5034938;28;20201;-56
2022/11/20 04:01:21;;;;;;;13.57;8.37;;;0.10;99.90;;;;;;5034269;28;20258;-55
2022/11/20 04:03:49;;;;;;;13.00;8.77;;;0.10;99.90;;;;;;5037713;28;20262;-56
2022/11/20 04:06:18;;;;;;;13.47;7.83;;;0.10;99.90;;;;;;5035798;28;20587;-56
2022/11/20 04:08:46;;;;;;;12.57;8.30;;;0.10;99.90;;;;;;5017191;28;20207;-56
2022/11/20 04:11:25;;;;;;;12.70;8.17;;;0.00;99.90;;;;;;5019154;28;20228;-56
2022/11/20 04:13:54;;;;;;;12.93;8.43;;;0.00;99.90;;;;;;5036648;28;20205;-56
2022/11/20 04:16:22;;;;;;;12.10;8.03;;;0.00;99.90;;;;;;5033303;28;20228;-55
2022/11/20 04:18:53;;;;;;;12.63;8.20;;;0.00;99.90;;;;;;5036687;28;20200;-54
2022/11/20 04:21:20;;;;;;;13.90;8.07;;;0.00;99.90;;;;;;5035713;28;20255;-56
2022/11/20 04:23:48;;;;;;;12.43;8.43;;;0.00;99.90;;;;;;5035985;28;20287;-56
2022/11/20 04:26:15;;;;;;;12.97;8.30;;;0.00;99.90;;;;;;5035686;28;20235;-59
2022/11/20 04:28:41;;;;;;;12.37;8.03;;;0.00;99.90;;;;;;5033500;28;20196;-56
2022/11/20 04:31:10;;;;;;;13.30;8.77;;;0.10;99.90;;;;;;5037054;28;20207;-55
2022/11/20 04:33:38;;;;;;;11.90;8.23;;;0.10;99.90;;;;;;5036071;28;20203;-57
2022/11/20 04:36:11;;;;;;;18.50;8.90;;;0.00;99.90;;;;;;5035101;28;20204;-56
2022/11/20 04:38:39;;;;;;;12.57;8.27;;;-0.10;99.90;;;;;;5035422;28;20662;-56
2022/11/20 04:41:08;;;;;;;13.03;8.53;;;0.00;99.90;;;;;;5035692;28;20692;-55
2022/11/20 04:43:35;;;;;;;13.73;8.67;;;0.00;99.90;;;;;;5034544;28;20320;-56
2022/11/20 04:46:02;;;;;;;12.80;7.63;;;-0.10;99.90;;;;;;5033211;28;20197;-57
2022/11/20 04:48:29;;;;;;;12.93;9.30;;;-0.10;99.90;;;;;;5018020;28;20200;-57
2022/11/20 04:50:56;;;;;;;11.97;8.10;;;-0.10;99.90;;;;;;5041265;28;20207;-56
2022/11/20 04:53:23;;;;;;;12.77;8.67;;;-0.10;99.90;;;;;;5038997;28;20227;-57
2022/11/20 04:55:50;;;;;;;11.97;8.10;;;0.00;99.90;;;;;;5023490;28;20196;-56
2022/11/20 04:58:17;;;;;;;13.33;8.10;;;0.00;99.90;;;;;;5037140;28;20200;-56
2022/11/20 05:00:44;;;;;;;15.00;8.73;;;-0.10;99.90;;;;;;5037438;28;20294;-55
2022/11/20 05:03:11;;;;;;;12.47;7.90;;;-0.20;99.90;;;;;;5026700;28;20232;-55
2022/11/20 05:05:37;;;;;;;12.53;7.97;;;-0.20;99.90;;;;;;5037250;28;20727;-56
2022/11/20 05:08:04;;;;;;;14.10;8.70;;;-0.20;99.90;;;;;;5038207;28;20213;-55
2022/11/20 05:10:31;;;;;;;12.30;8.47;;;-0.20;99.90;;;;;;5040499;28;20223;-56
2022/11/20 05:12:58;;;;;;;12.43;7.97;;;-0.30;99.90;;;;;;5041730;28;20201;-57
2022/11/20 05:15:24;;;;;;;10.77;7.73;;;-0.30;99.90;;;;;;5069250;28;20626;-56
2022/11/20 05:17:52;;;;;;;12.13;7.87;;;-0.20;99.90;;;;;;5051190;28;20304;-56
2022/11/20 05:20:20;;;;;;;13.83;7.97;;;-0.30;99.90;;;;;;5046440;28;20298;-56
2022/11/20 05:22:46;;;;;;;9.97;7.30;;;-0.30;99.90;;;;;;5039054;28;20306;-56
2022/11/20 05:25:13;;;;;;;11.10;7.80;;;-0.20;99.90;;;;;;5072138;28;20217;-56
2022/11/20 05:27:40;;;;;;;14.10;8.70;;;-0.20;99.90;;;;;;5039295;28;20625;-56
2022/11/20 05:30:08;;;;;;;12.90;8.00;;;-0.20;99.90;;;;;;5040563;28;20200;-55
2022/11/20 05:32:34;;;;;;;10.73;7.07;;;-0.20;99.90;;;;;;5039623;28;20869;-56
2022/11/20 05:35:01;;;;;;;12.50;7.63;;;-0.10;99.90;;;;;;5040952;28;20210;-54
2022/11/20 05:37:28;;;;;;;13.77;8.50;;;-0.20;99.90;;;;;;5038428;28;20753;-55
2022/11/20 05:39:55;;;;;;;12.67;8.03;;;-0.30;99.90;;;;;;5040412;28;20211;-56
2022/11/20 05:42:30;;;;;;;13.90;7.83;;;-0.40;99.90;;;;;;5040596;28;20640;-56
2022/11/20 05:45:02;;;;;;;12.70;7.93;;;-0.40;99.90;;;;;;5040303;28;20219;-55
2022/11/20 05:47:33;;;;;;;12.47;8.60;;;-0.40;99.90;;;;;;5039083;28;20216;-56
2022/11/20 05:50:00;;;;;;;14.27;8.13;;;-0.50;99.90;;;;;;5040604;28;20602;-56
2022/11/20 05:52:30;;;;;;;10.97;7.93;;;-0.50;99.90;;;;;;5039386;28;20236;-56
2022/11/20 05:54:57;;;;;;;14.33;8.63;;;-0.50;99.90;;;;;;5040608;28;20241;-55
2022/11/20 05:57:24;;;;;;;14.90;8.57;;;-0.50;99.90;;;;;;5054793;28;20212;-55
2022/11/20 05:59:50;;;;;;;13.50;8.33;;;-0.60;99.90;;;;;;5066376;28;20208;-56
2022/11/20 06:02:17;;;;;;;12.50;7.77;;;-0.60;99.90;;;;;;5039618;28;20334;-56
2022/11/20 06:04:44;;;;;;;11.80;7.80;;;-0.50;99.90;;;;;;5039681;28;20211;-56
2022/11/20 06:07:11;;;;;;;13.90;8.60;;;-0.50;99.90;;;;;;5038299;28;20241;-56
2022/11/20 06:09:38;;;;;;;12.87;7.83;;;-0.50;99.90;;;;;;5036540;28;20291;-56
2022/11/20 06:12:05;;;;;;;12.00;8.17;;;-0.50;99.90;;;;;;5037340;28;20208;-60
2022/11/20 06:14:32;;;;;;;13.80;8.17;;;-0.50;99.90;;;;;;5038581;28;20208;-55
2022/11/20 06:16:59;;;;;;;14.50;8.67;;;-0.40;99.90;;;;;;5039701;28;20227;-55
2022/11/20 06:19:25;;;;;;;12.83;8.43;;;-0.50;99.90;;;;;;5040098;28;20203;-56
2022/11/20 06:21:52;;;;;;;14.43;8.17;;;-0.50;99.90;;;;;;5041136;28;20205;-58
2022/11/20 06:24:19;;;;;;;12.20;8.33;;;-0.50;99.90;;;;;;5022711;28;20223;-57
2022/11/20 06:26:45;;;;;;;12.87;8.03;;;-0.50;99.90;;;;;;5005806;28;20227;-56
2022/11/20 06:29:12;;;;;;;13.47;8.40;;;-0.70;99.90;;;;;;5034147;28;20523;-57
2022/11/20 06:31:39;;;;;;;13.80;8.17;;;-0.60;99.90;;;;;;5034400;28;20523;-59
2022/11/20 06:34:06;;;;;;;12.87;8.23;;;-0.60;99.90;;;;;;5039684;28;20215;-58
2022/11/20 06:36:33;;;;;;;15.20;8.40;;;-0.70;99.90;;;;;;5036996;28;20215;-56
2022/11/20 06:39:00;;;;;;;12.53;7.90;;;-0.70;99.90;;;;;;5037823;28;20203;-56
2022/11/20 06:41:27;;;;;;;14.53;8.10;;;-0.60;99.90;;;;;;5040577;28;20207;-57
2022/11/20 06:43:54;;;;;;;14.00;9.13;;;-0.60;99.90;;;;;;5039847;28;20204;-55
2022/11/20 06:46:21;;;;;;;12.50;8.10;;;-0.50;99.90;;;;;;5050563;28;20254;-56
2022/11/20 06:48:49;;;;;;;12.77;7.93;;;-0.60;99.90;;;;;;5053109;28;20247;-57
2022/11/20 06:51:16;;;;;;;17.63;9.57;;;-0.70;99.90;;;;;;5040699;28;20299;-56
2022/11/20 06:53:43;;;;;;;13.40;8.83;;;-0.60;99.90;;;;;;5040294;28;20666;-56
2022/11/20 06:56:10;;;;;;;15.13;8.00;;;-0.60;99.90;;;;;;5039622;28;20253;-56
2022/11/20 06:58:38;;;;;;;13.43;8.73;;;-0.60;99.90;;;;;;5038170;28;20231;-55
2022/11/20 07:01:09;;;;;;;16.10;9.70;;;-0.60;99.90;;;;;;5029511;28;20214;-55
2022/11/20 07:03:37;;;;;;;16.53;9.17;;;-0.60;99.90;;;;;;5039436;28;20269;-56
2022/11/20 07:06:05;;;;;;;13.80;8.57;;;-0.60;99.90;;;;;;5039145;28;20224;-59
2022/11/20 07:08:32;;;;;;;18.03;9.50;;;-0.50;99.90;;;;;;5037373;28;20220;-56
2022/11/20 07:11:01;;;;;;;15.83;9.23;;;-0.60;99.90;;;;;;5039671;28;20228;-57
2022/11/20 07:13:28;;;;;;;12.53;8.30;;;-0.50;99.90;;;;;;5038965;28;20204;-56
2022/11/20 07:15:58;;;;;;;13.97;8.73;;;-0.50;99.90;;;;;;5038361;28;20296;-56
2022/11/20 07:18:25;;;;;;;15.57;9.43;;;-0.70;99.90;;;;;;5037790;28;20208;-56
2022/11/20 07:20:52;;;;;;;17.43;9.73;;;-0.50;99.90;;;;;;5039860;28;20204;-56
2022/11/20 07:23:18;;;;;;;14.13;9.10;;;-0.40;99.90;;;;;;5038186;28;20354;-56
2022/11/20 07:25:45;;;;;;;14.47;8.10;;;-0.40;99.90;;;;;;5038334;28;20626;-56
2022/11/20 07:28:13;;;;;;;13.17;9.27;;;-0.30;99.90;;;;;;5038253;28;20220;-56
2022/11/20 07:30:40;;;;;;;12.33;8.30;;;-0.30;99.90;;;;;;5038148;28;20200;-56
2022/11/20 07:33:07;;;;;;;16.83;9.97;;;-0.20;99.90;;;;;;5034025;28;20200;-56
2022/11/20 07:35:34;;;;;;;14.90;9.03;;;0.00;99.90;;;;;;5034949;28;20616;-56
2022/11/20 07:38:00;;;;;;;16.53;9.73;;;0.00;99.90;;;;;;5038530;28;20208;-56
2022/11/20 07:40:28;;;;;;;16.53;9.07;;;0.00;99.90;;;;;;5036128;28;20216;-60
2022/11/20 07:42:55;;;;;;;14.23;9.43;;;0.00;99.90;;;;;;5039145;28;20652;-55
2022/11/20 07:45:24;;;;;;;13.27;8.20;;;0.10;99.90;;;;;;5038185;28;20223;-56
2022/11/20 07:47:51;;;;;;;14.50;9.77;;;0.00;99.90;;;;;;5036666;28;20307;-57
2022/11/20 07:50:19;;;;;;;17.37;9.90;;;0.00;99.90;;;;;;5039744;28;20304;-60
2022/11/20 07:52:45;;;;;;;19.20;10.37;;;0.00;99.90;;;;;;5038226;28;20207;-57
2022/11/20 07:55:12;;;;;;;15.73;9.87;;;0.10;99.90;;;;;;5035853;28;20245;-57
2022/11/20 07:57:39;;;;;;;14.80;9.53;;;0.20;99.90;;;;;;5038884;28;20208;-56
2022/11/20 08:00:09;;;;;;;16.03;9.80;;;0.10;99.90;;;;;;5036765;28;20573;-60
2022/11/20 08:02:39;;;;;;;18.07;9.67;;;0.20;99.90;;;;;;5038987;28;20244;-57
2022/11/20 08:05:07;;;;;;;15.07;9.57;;;0.30;99.90;;;;;;5039497;28;20240;-56
2022/11/20 08:07:42;;;;;;;15.70;9.07;;;0.30;99.90;;;;;;5037391;28;20564;-56
2022/11/20 08:10:11;;;;;;;13.77;9.67;;;0.30;99.90;;;;;;5039659;28;20234;-57
2022/11/20 08:15:35;;;;;;;15.80;9.67;;;0.30;99.90;;;;;;5039678;28;20193;-67
2022/11/20 08:18:07;;;;;;;14.93;10.03;;;0.20;99.90;;;;;;5039626;28;20661;-59
2022/11/20 08:20:54;;;;;;;15.97;9.50;;;0.30;99.90;;;;;;5040239;28;20208;-58
2022/11/20 08:23:22;;;;;;;16.53;10.70;;;0.40;99.90;;;;;;5041058;28;20295;-58
2022/11/20 08:25:50;;;;;;;17.63;9.87;;;0.40;99.90;;;;;;5043148;28;20205;-57
2022/11/20 08:28:18;;;;;;;13.83;9.27;;;0.40;99.90;;;;;;5026319;28;20231;-56
2022/11/20 08:30:48;;;;;;;16.57;9.40;;;0.60;99.90;;;;;;5044040;28;20721;-57
2022/11/20 08:33:17;;;;;;;15.90;9.57;;;0.60;99.90;;;;;;5041824;28;20239;-56
2022/11/20 08:35:44;;;;;;;14.67;9.80;;;0.60;99.90;;;;;;5044197;28;20331;-57
2022/11/20 08:38:10;;;;;;;16.53;10.17;;;0.70;99.90;;;;;;5042796;28;20204;-56
2022/11/20 08:40:37;;;;;;;15.97;9.87;;;0.70;99.90;;;;;;5041174;28;20307;-56
2022/11/20 08:43:04;;;;;;;15.27;10.40;;;0.80;99.90;;;;;;5041198;28;20208;-56
2022/11/20 08:45:31;;;;;;;16.63;9.77;;;0.80;99.90;;;;;;5042409;28;20291;-56
2022/11/20 08:48:02;;;;;;;13.80;9.03;;;0.80;99.90;;;;;;5042107;28;20216;-58
2022/11/20 08:50:31;;;;;;;18.90;10.17;;;0.90;99.90;;;;;;5043258;28;20197;-57
2022/11/20 08:53:05;;;;;;;14.60;9.87;;;0.80;99.90;;;;;;5044561;28;20195;-57
2022/11/20 08:55:35;;;;;;;16.83;9.80;;;0.90;99.90;;;;;;5044149;28;20220;-55
2022/11/20 08:58:08;;;;;;;17.33;10.03;;;0.90;99.90;;;;;;5040169;28;20234;-57
2022/11/20 09:00:35;;;;;;;15.07;9.83;;;1.00;99.90;;;;;;5041991;28;20290;-58
2022/11/20 09:03:02;;;;;;;14.20;9.20;;;1.00;99.90;;;;;;5041879;28;20250;-57
2022/11/20 09:05:29;;;;;;;17.27;10.63;;;1.10;99.90;;;;;;5044261;28;20266;-56
2022/11/20 09:07:57;;;;;;;16.80;10.67;;;1.30;99.90;;;;;;5051758;28;20235;-55
2022/11/20 09:10:24;;;;;;;16.20;10.60;;;1.40;99.90;;;;;;5054928;28;20735;-56
2022/11/20 09:12:52;;;;;;;18.77;10.50;;;1.30;99.90;;;;;;5040298;28;20207;-57
2022/11/20 09:15:19;;;;;;;17.60;11.60;;;1.40;99.90;;;;;;5023367;28;20323;-57
2022/11/20 09:17:53;;;;;;;18.43;9.83;;;1.50;99.90;;;;;;5038749;28;20223;-56
2022/11/20 09:20:20;;;;;;;15.77;10.20;;;1.50;99.90;;;;;;5041911;28;20216;-58
2022/11/20 09:22:48;;;;;;;15.93;10.07;;;1.50;99.90;;;;;;5042594;28;20290;-57
2022/11/20 09:25:14;;;;;;;19.23;10.60;;;1.50;99.90;;;;;;5042401;28;20295;-57
2022/11/20 09:27:43;;;;;;;17.23;10.93;;;1.50;99.90;;;;;;5040784;28;20310;-57
2022/11/20 09:30:10;;;;;;;15.73;10.70;;;1.50;99.90;;;;;;5052505;28;20663;-57
2022/11/20 09:32:39;;;;;;;18.33;10.40;;;1.70;99.90;;;;;;5039981;28;20664;-57
2022/11/20 09:35:06;;;;;;;20.00;11.03;;;1.70;99.90;;;;;;5039168;28;20207;-56
2022/11/20 09:37:33;;;;;;;18.43;11.47;;;1.60;99.90;;;;;;5039896;28;20200;-57
2022/11/20 09:40:00;;;;;;;18.97;11.10;;;1.80;99.90;;;;;;5040554;28;20371;-57
2022/11/20 09:42:53;;;;;;;16.17;10.83;;;1.80;99.90;;;;;;5040295;28;20283;-57
2022/11/20 09:45:41;;;;;;;16.83;11.10;;;1.90;99.90;;;;;;5035002;28;20247;-57
2022/11/20 09:48:10;;;;;;;19.00;10.50;;;2.00;99.90;;;;;;5035850;28;20303;-55
2022/11/20 09:50:48;;;;;;;17.00;11.37;;;2.00;99.90;;;;;;5038133;28;20288;-57
2022/11/20 09:53:52;;;;;;;19.90;10.97;;;2.00;99.90;;;;;;5040516;28;20207;-58
2022/11/20 09:56:20;;;;;;;18.57;11.20;;;2.00;99.90;;;;;;5038714;28;20198;-56
2022/11/20 09:58:51;;;;;;;17.67;10.90;;;2.00;99.90;;;;;;5038792;28;20727;-59
2022/11/20 10:01:20;;;;;;;17.17;11.33;;;2.00;99.90;;;;;;5039885;28;20330;-57
2022/11/20 10:04:23;;;;;;;17.47;11.13;;;2.10;99.90;;;;;;5036923;28;20228;-56
2022/11/20 10:07:06;;;;;;;18.03;11.17;;;2.10;99.90;;;;;;5008685;28;20211;-56
2022/11/20 10:09:55;;;;;;;18.07;11.63;;;2.00;99.90;;;;;;5040904;28;20196;-56
2022/11/20 10:12:43;;;;;;;21.50;13.23;;;2.10;99.90;;;;;;5038073;28;20241;-57
2022/11/20 10:15:28;;;;;;;18.27;10.70;;;2.10;99.90;;;;;;5039664;28;20283;-57
2022/11/20 10:18:23;;;;;;;16.00;10.37;;;2.10;99.90;;;;;;5034917;28;20243;-57
2022/11/20 10:21:13;;;;;;;17.87;11.23;;;2.10;99.90;;;;;;5038942;28;20201;-57
2022/11/20 10:23:51;;;;;;;17.27;11.53;;;2.10;99.90;;;;;;5034923;28;20192;-57
2022/11/20 10:26:45;;;;;;;17.53;11.17;;;2.10;99.90;;;;;;5034602;28;20220;-57
2022/11/20 10:29:13;;;;;;;18.83;11.80;;;2.00;99.90;;;;;;5037852;28;20308;-56
2022/11/20 10:31:46;;;;;;;17.13;11.87;;;2.00;99.90;;;;;;5035072;28;20201;-56
2022/11/20 10:34:31;;;;;;;24.37;14.33;;;2.20;99.90;;;;;;5038058;28;20316;-56
2022/11/20 10:37:18;;;;;;;27.33;16.63;;;2.30;99.90;;;;;;5041289;28;20564;-57
2022/11/20 10:39:54;;;;;;;26.50;16.13;;;2.30;99.90;;;;;;5055605;28;20299;-57
2022/11/20 10:42:40;;;;;;;24.17;13.87;;;2.30;99.90;;;;;;5055746;28;20209;-56
2022/11/20 10:45:50;;;;;;;20.60;12.27;;;2.30;99.90;;;;;;5041519;28;21063;-56
2022/11/20 10:48:23;;;;;;;22.07;13.00;;;2.40;99.90;;;;;;5053057;28;20221;-56
2022/11/20 10:51:15;;;;;;;23.53;12.80;;;2.50;99.90;;;;;;5025292;28;20289;-56
2022/11/20 10:54:14;;;;;;;20.60;12.97;;;2.60;99.90;;;;;;5038923;28;20232;-55
2022/11/20 10:56:47;;;;;;;21.43;13.10;;;2.70;99.90;;;;;;5013800;28;20224;-56
2022/11/20 10:59:27;;;;;;;21.83;12.93;;;2.80;99.90;;;;;;5038779;28;20302;-56
2022/11/20 11:01:54;;;;;;;23.13;12.90;;;2.90;99.90;;;;;;5039470;28;20204;-56
2022/11/20 11:04:45;;;;;;;24.80;14.10;;;3.00;99.90;;;;;;5059598;28;20242;-56
2022/11/20 11:07:25;;;;;;;23.87;13.37;;;2.90;99.90;;;;;;5058743;28;20409;-56
2022/11/20 11:09:54;;;;;;;25.10;13.30;;;2.90;99.90;;;;;;5058713;28;20205;-56
2022/11/20 11:12:24;;;;;;;25.03;12.63;;;2.90;99.90;;;;;;5060420;28;20211;-55
2022/11/20 11:14:57;;;;;;;26.20;13.40;;;3.00;99.90;;;;;;5058908;28;20212;-56
2022/11/20 11:17:31;;;;;;;28.70;14.03;;;3.00;99.90;;;;;;5072863;28;20288;-55
2022/11/20 11:20:02;;;;;;;29.03;15.50;;;3.10;99.90;;;;;;5058439;28;20215;-56
2022/11/20 11:22:32;;;;;;;28.40;12.93;;;3.10;99.90;;;;;;5052943;28;20225;-55
2022/11/20 11:25:00;;;;;;;28.23;14.00;;;3.10;99.90;;;;;;5055001;28;20265;-54
2022/11/20 11:27:27;;;;;;;26.13;13.40;;;3.20;99.90;;;;;;5046518;28;20383;-56
2022/11/20 11:30:15;;;;;;;30.33;16.37;;;3.30;99.90;;;;;;5049344;28;20216;-55
2022/11/20 11:32:43;;;;;;;29.66;15.60;;;3.40;99.90;;;;;;4699080;28;10000788;-56
2022/11/20 11:35:25;;;;;;;28.50;15.73;;;3.40;99.90;;;;;;5045389;28;20734;-56
2022/11/20 11:38:04;;;;;;;27.10;15.30;;;3.30;99.90;;;;;;5055368;28;20566;-56
2022/11/20 11:40:34;;;;;;;29.23;15.03;;;3.30;99.90;;;;;;5050447;28;20291;-56
2022/11/20 11:45:04;;;;;;;28.90;15.23;;;3.40;99.90;;;;;;5039552;28;20538;-56
2022/11/20 11:45:55;;;;;;;36.03;15.73;;;3.50;99.90;;;;;;5038421;28;20245;-56
2022/11/20 11:48:22;;;;;;;31.07;15.47;;;3.40;99.90;;;;;;5053629;28;20224;-54
2022/11/20 11:50:51;;;;;;;28.80;14.03;;;3.40;99.90;;;;;;5049659;28;20287;-55
2022/11/20 11:53:21;;;;;;;30.97;16.00;;;3.40;99.90;;;;;;5047774;28;20258;-56
2022/11/20 11:56:11;;;;;;;33.03;16.67;;;3.30;99.90;;;;;;5056567;28;20215;-56
2022/11/20 11:58:49;;;;;;;31.07;15.10;;;3.40;99.90;;;;;;5057625;28;20307;-56
2022/11/20 12:01:44;;;;;;;28.60;15.63;;;3.30;99.90;;;;;;5060183;28;20207;-55
2022/11/20 12:04:38;;;;;;;28.40;14.53;;;3.40;99.90;;;;;;5040577;28;20324;-57
2022/11/20 12:07:15;;;;;;;31.43;16.03;;;3.40;99.90;;;;;;5042399;28;20563;-56
2022/11/20 12:10:03;;;;;;;34.17;15.97;;;3.40;99.90;;;;;;5038819;28;20228;-56
2022/11/20 12:12:42;;;;;;;33.80;15.93;;;3.30;99.90;;;;;;5039790;28;20230;-56
2022/11/20 12:15:22;;;;;;;33.17;18.13;;;3.30;99.90;;;;;;5037680;28;20635;-55
2022/11/20 12:17:49;;;;;;;35.83;19.70;;;3.40;99.90;;;;;;5037361;28;20221;-55
2022/11/20 12:20:16;;;;;;;36.67;18.90;;;3.30;99.90;;;;;;5033559;28;20619;-56
2022/11/20 12:23:17;;;;;;;38.93;19.23;;;3.40;99.90;;;;;;5036265;28;20676;-56
2022/11/20 12:25:48;;;;;;;41.53;18.00;;;3.50;99.90;;;;;;5034844;28;21070;-56
2022/11/20 12:28:38;;;;;;;35.67;16.50;;;3.50;99.90;;;;;;5033333;28;20215;-57
2022/11/20 12:31:40;;;;;;;33.93;17.33;;;3.60;99.90;;;;;;5036331;28;20654;-56
2022/11/20 12:34:28;;;;;;;40.80;16.93;;;3.70;99.90;;;;;;5035674;28;20206;-56
2022/11/20 12:37:35;;;;;;;37.10;17.43;;;3.60;99.90;;;;;;5037038;28;20198;-56
2022/11/20 12:40:35;;;;;;;39.17;18.73;;;3.60;99.90;;;;;;5001870;28;20220;-56
2022/11/20 12:46:49;;;;;;;40.17;18.30;;;3.80;99.90;;;;;;5034599;28;20203;-55
2022/11/20 12:49:39;;;;;;;38.13;18.73;;;3.90;99.90;;;;;;4977683;28;20415;-55
2022/11/20 12:52:30;;;;;;;44.67;19.73;;;3.80;99.90;;;;;;5035440;28;20219;-56
2022/11/20 12:55:20;;;;;;;38.23;18.67;;;3.80;99.90;;;;;;5033342;28;20215;-54
2022/11/20 12:58:16;;;;;;;38.60;18.23;;;3.90;99.90;;;;;;5031325;28;20229;-57
2022/11/20 13:01:04;;;;;;;39.53;17.73;;;3.90;99.90;;;;;;5046060;28;20215;-56
2022/11/20 13:03:44;;;;;;;42.93;19.20;;;3.90;99.90;;;;;;5018008;28;20246;-54
2022/11/20 13:06:17;;;;;;;43.70;19.10;;;3.90;99.90;;;;;;5036308;28;20197;-56
2022/11/20 13:08:53;;;;;;;39.10;19.47;;;4.00;99.90;;;;;;5028585;28;20250;-55
2022/11/20 13:12:03;;;;;;;35.73;19.20;;;4.00;99.90;;;;;;5032262;28;20264;-55